createdAt,value
2023-02-21T00:01:37.967Z,13.18
2023-02-21T00:04:04.889Z,14.45
2023-02-21T00:06:31.850Z,14.65
2023-02-21T00:08:58.684Z,16.92
2023-02-21T00:11:25.510Z,13.60
2023-02-21T00:13:52.411Z,16.38
2023-02-21T00:16:19.424Z,17.90
2023-02-21T00:18:46.305Z,16.42
2023-02-21T00:21:13.482Z,16.15
2023-02-21T00:23:40.546Z,16.83
2023-02-21T00:26:07.461Z,17.98
2023-02-21T00:28:34.328Z,16.17
2023-02-21T00:31:01.259Z,17.38
2023-02-21T00:33:28.236Z,16.13
2023-02-21T00:35:55.161Z,17.50
2023-02-21T00:38:22.027Z,16.50
2023-02-21T00:40:49.155Z,19.13
2023-02-21T00:43:15.949Z,17.33
2023-02-21T00:45:43.070Z,15.98
2023-02-21T00:48:09.978Z,16.45
2023-02-21T00:50:36.825Z,15.88
2023-02-21T00:53:03.653Z,16.40
2023-02-21T00:55:30.352Z,16.13
2023-02-21T00:57:57.141Z,16.35
2023-02-21T01:00:24.892Z,17.45
2023-02-21T01:02:51.716Z,17.70
2023-02-21T01:05:18.459Z,15.88
2023-02-21T01:07:45.441Z,15.35
2023-02-21T01:10:12.257Z,16.45
2023-02-21T01:12:39.075Z,15.23
2023-02-21T01:15:06.388Z,17.42
2023-02-21T01:17:33.331Z,16.98
2023-02-21T01:20:01.419Z,17.83
2023-02-21T01:22:29.208Z,18.33
2023-02-21T01:24:56.201Z,17.17
2023-02-21T01:27:23.305Z,18.27
2023-02-21T01:29:50.174Z,17.60
2023-02-21T01:32:17.195Z,18.35
2023-02-21T01:34:44.074Z,19.30
2023-02-21T01:37:10.918Z,20.38
2023-02-21T01:39:38.925Z,19.65
2023-02-21T01:42:05.770Z,20.88
2023-02-21T01:44:41.443Z,21.48
2023-02-21T01:49:40.527Z,22.40
2023-02-21T01:52:07.456Z,20.98
2023-02-21T01:54:39.395Z,21.25
2023-02-21T01:57:07.740Z,21.13
2023-02-21T01:59:36.963Z,24.48
2023-02-21T02:02:21.340Z,22.27
2023-02-21T02:04:50.002Z,23.67
2023-02-21T02:07:16.847Z,22.08
2023-02-21T02:09:43.711Z,22.15
2023-02-21T02:12:45.544Z,21.73
2023-02-21T02:15:33.551Z,23.98
2023-02-21T02:18:03.652Z,24.25
2023-02-21T02:20:45.286Z,23.77
2023-02-21T02:23:57.087Z,24.73
2023-02-21T02:26:32.282Z,25.25
2023-02-21T02:29:32.816Z,21.73
2023-02-21T02:32:19.683Z,24.00
2023-02-21T02:34:57.923Z,22.80
2023-02-21T02:37:31.881Z,22.38
2023-02-21T02:40:22.748Z,23.30
2023-02-21T02:42:58.747Z,22.77
2023-02-21T02:45:48.383Z,21.73
2023-02-21T02:48:22.584Z,23.88
2023-02-21T02:50:52.128Z,24.02
2023-02-21T02:53:25.956Z,22.73
2023-02-21T02:55:59.136Z,23.05
2023-02-21T02:58:30.854Z,23.92
2023-02-21T03:01:20.790Z,25.63
2023-02-21T03:04:12.702Z,25.33
2023-02-21T03:06:51.276Z,24.60
2023-02-21T03:09:38.959Z,25.25
2023-02-21T03:12:38.832Z,27.70
2023-02-21T03:15:30.746Z,26.67
2023-02-21T03:18:07.170Z,27.88
2023-02-21T03:20:35.532Z,23.50
2023-02-21T03:23:04.245Z,24.15
2023-02-21T03:25:34.557Z,23.27
2023-02-21T03:28:02.406Z,23.75
2023-02-21T03:37:35.355Z,21.75
2023-02-21T03:40:04.997Z,23.10
2023-02-21T03:42:32.256Z,20.45
2023-02-21T03:44:59.245Z,20.95
2023-02-21T03:47:26.096Z,20.42
2023-02-21T03:49:53.200Z,22.83
2023-02-21T03:52:20.456Z,22.42
2023-02-21T03:54:47.534Z,20.27
2023-02-21T03:57:16.584Z,22.15
2023-02-21T03:59:43.989Z,19.77
2023-02-21T04:02:10.863Z,20.38
2023-02-21T04:04:37.787Z,22.63
2023-02-21T04:07:04.824Z,22.23
2023-02-21T04:09:31.752Z,20.10
2023-02-21T04:11:58.880Z,19.83
2023-02-21T04:14:25.731Z,19.73
2023-02-21T04:16:52.536Z,18.90
2023-02-21T04:19:19.432Z,19.67
2023-02-21T04:21:46.318Z,17.67
2023-02-21T04:24:15.805Z,18.75
2023-02-21T04:26:42.569Z,18.17
2023-02-21T04:29:09.725Z,18.25
2023-02-21T04:31:36.578Z,19.48
2023-02-21T04:34:11.674Z,18.17
2023-02-21T04:36:39.618Z,17.00
2023-02-21T04:39:07.614Z,17.90
2023-02-21T04:41:34.506Z,17.80
2023-02-21T04:44:01.393Z,18.90
2023-02-21T04:46:28.201Z,17.88
2023-02-21T04:48:55.005Z,19.10
2023-02-21T04:51:24.344Z,17.92
2023-02-21T04:53:52.984Z,16.48
2023-02-21T04:56:22.509Z,20.60
2023-02-21T04:58:50.041Z,19.60
2023-02-21T05:01:18.753Z,22.45
2023-02-21T05:03:45.881Z,22.02
2023-02-21T05:06:24.068Z,25.30
2023-02-21T05:08:51.547Z,24.30
2023-02-21T05:11:20.120Z,28.52
2023-02-21T05:13:47.407Z,29.15
2023-02-21T05:16:14.840Z,31.02
2023-02-21T05:18:43.384Z,29.50
2023-02-21T05:21:10.519Z,33.13
2023-02-21T05:23:38.834Z,33.55
2023-02-21T05:26:08.783Z,31.60
2023-02-21T05:28:36.934Z,33.40
2023-02-21T05:31:04.436Z,34.40
2023-02-21T05:33:31.451Z,38.58
2023-02-21T05:35:58.549Z,37.72
2023-02-21T05:38:26.295Z,38.03
2023-02-21T05:40:53.644Z,36.25
2023-02-21T05:43:21.417Z,39.03
2023-02-21T05:45:48.727Z,35.13
2023-02-21T05:48:15.656Z,32.53
2023-02-21T05:50:42.648Z,32.40
2023-02-21T05:53:10.052Z,33.53
2023-02-21T05:55:37.259Z,32.67
2023-02-21T05:58:04.262Z,30.63
2023-02-21T06:00:31.573Z,31.67
2023-02-21T06:02:58.365Z,31.13
2023-02-21T06:05:25.499Z,28.80
2023-02-21T06:07:52.452Z,24.50
2023-02-21T06:10:20.040Z,26.65
2023-02-21T06:12:47.176Z,28.13
2023-02-21T06:15:14.066Z,30.17
2023-02-21T06:17:41.692Z,29.13
2023-02-21T06:20:12.573Z,26.63
2023-02-21T06:22:39.364Z,29.05
2023-02-21T06:25:06.718Z,27.27
2023-02-21T06:27:35.938Z,32.85
2023-02-21T06:30:03.986Z,35.47
2023-02-21T06:32:30.836Z,31.20
2023-02-21T06:34:57.672Z,28.67
2023-02-21T06:37:24.568Z,27.98
2023-02-21T06:39:51.530Z,28.30
2023-02-21T06:42:20.352Z,29.67
2023-02-21T06:44:48.592Z,28.75
2023-02-21T06:47:16.441Z,24.90
2023-02-21T06:49:43.587Z,27.02
2023-02-21T06:52:10.844Z,31.25
2023-02-21T06:54:38.093Z,25.33
2023-02-21T06:57:05.546Z,27.20
2023-02-21T06:59:32.705Z,20.27
2023-02-21T07:01:59.772Z,21.90
2023-02-21T07:04:26.814Z,24.45
2023-02-21T07:06:53.684Z,25.30
2023-02-21T07:09:20.473Z,25.08
2023-02-21T07:11:47.295Z,26.27
2023-02-21T07:14:16.618Z,28.02
2023-02-21T07:16:43.478Z,25.05
2023-02-21T07:19:11.321Z,26.48
2023-02-21T07:21:41.050Z,21.23
2023-02-21T07:24:07.975Z,16.58
2023-02-21T07:26:34.751Z,20.38
2023-02-21T07:29:01.707Z,20.27
2023-02-21T07:31:28.532Z,26.35
2023-02-21T07:33:55.393Z,20.55
2023-02-21T07:36:23.065Z,19.17
2023-02-21T07:38:49.946Z,14.55
2023-02-21T07:41:17.612Z,19.77
2023-02-21T07:43:44.714Z,15.43
2023-02-21T07:46:13.117Z,10.35
2023-02-21T07:48:40.179Z,7.47
2023-02-21T07:51:07.891Z,9.50
2023-02-21T07:53:35.197Z,8.43
2023-02-21T07:56:02.703Z,8.15
2023-02-21T07:58:29.858Z,9.70
2023-02-21T08:00:56.673Z,5.78
2023-02-21T08:03:23.953Z,7.00
2023-02-21T08:05:50.897Z,5.60
2023-02-21T08:08:18.865Z,5.28
2023-02-21T08:10:45.699Z,5.68
2023-02-21T08:13:12.485Z,4.38
2023-02-21T08:15:39.259Z,5.03
2023-02-21T08:18:20.149Z,4.88
2023-02-21T08:20:47.461Z,5.82
2023-02-21T08:23:14.328Z,6.18
2023-02-21T08:25:41.647Z,7.20
2023-02-21T08:28:08.413Z,4.43
2023-02-21T08:30:35.645Z,3.92
2023-02-21T08:33:03.571Z,5.03
2023-02-21T08:35:31.471Z,8.75
2023-02-21T08:37:58.617Z,2.90
2023-02-21T08:40:28.155Z,3.33
2023-02-21T08:42:55.819Z,3.90
2023-02-21T08:45:24.772Z,2.92
2023-02-21T08:47:52.073Z,3.05
2023-02-21T08:50:21.122Z,1.80
2023-02-21T08:52:49.021Z,6.13
2023-02-21T08:55:16.609Z,3.65
2023-02-21T08:57:43.514Z,3.78
2023-02-21T09:00:13.831Z,3.95
2023-02-21T09:02:41.132Z,4.22
2023-02-21T09:05:21.171Z,5.10
2023-02-21T09:07:52.977Z,4.82
2023-02-21T09:10:19.896Z,3.72
2023-02-21T09:12:47.107Z,3.90
2023-02-21T09:15:17.141Z,2.60
2023-02-21T09:17:44.473Z,4.65
2023-02-21T09:20:15.271Z,4.95
2023-02-21T09:22:45.652Z,4.82
2023-02-21T09:25:13.571Z,4.65
2023-02-21T09:27:41.387Z,3.38
2023-02-21T09:30:12.958Z,5.63
2023-02-21T09:32:40.995Z,7.38
2023-02-21T09:35:09.139Z,10.93
2023-02-21T09:37:40.321Z,9.25
2023-02-21T09:40:52.379Z,7.78
2023-02-21T09:43:25.980Z,14.27
2023-02-21T09:45:58.365Z,10.75
2023-02-21T09:48:27.385Z,9.40
2023-02-21T09:51:01.310Z,11.65
2023-02-21T09:53:31.663Z,9.30
2023-02-21T09:56:11.357Z,12.85
2023-02-21T09:58:42.860Z,12.23
2023-02-21T10:01:19.524Z,11.52
2023-02-21T10:04:24.752Z,14.05
2023-02-21T10:06:58.316Z,16.08
2023-02-21T10:09:28.037Z,13.18
2023-02-21T10:11:57.584Z,17.17
2023-02-21T10:14:45.490Z,16.02
2023-02-21T10:17:36.528Z,12.98
2023-02-21T10:20:22.570Z,20.83
2023-02-21T10:22:52.940Z,12.52
2023-02-21T10:25:26.591Z,14.00
2023-02-21T10:27:54.186Z,17.05
2023-02-21T10:30:33.970Z,21.45
2023-02-21T10:33:01.299Z,20.80
2023-02-21T10:35:31.031Z,19.30
2023-02-21T10:38:00.772Z,18.88
2023-02-21T10:40:36.057Z,18.17
2023-02-21T10:43:21.268Z,15.25
2023-02-21T10:45:52.043Z,17.17
2023-02-21T10:48:20.619Z,18.70
2023-02-21T10:51:30.995Z,16.30
2023-02-21T10:54:24.528Z,14.43
2023-02-21T10:56:54.007Z,16.20
2023-02-21T10:59:27.872Z,21.50
2023-02-21T11:01:57.565Z,20.17
2023-02-21T11:04:28.891Z,15.77
2023-02-21T11:07:02.600Z,16.42
2023-02-21T11:09:34.668Z,14.45
2023-02-21T11:12:18.710Z,11.45
2023-02-21T11:14:51.760Z,13.20
2023-02-21T11:17:24.648Z,14.40
2023-02-21T11:20:16.888Z,12.35
2023-02-21T11:22:46.503Z,16.63
2023-02-21T11:25:38.414Z,14.57
2023-02-21T11:28:05.526Z,15.00
2023-02-21T11:30:38.786Z,18.45
2023-02-21T11:33:10.711Z,13.48
2023-02-21T11:35:46.631Z,17.80
2023-02-21T11:38:34.774Z,21.52
2023-02-21T11:41:04.536Z,22.50
2023-02-21T11:43:33.576Z,19.90
2023-02-21T11:46:32.240Z,12.63
2023-02-21T11:55:17.595Z,13.90
2023-02-21T11:58:03.010Z,16.73
2023-02-21T12:00:32.621Z,20.25
2023-02-21T12:03:28.508Z,19.35
2023-02-21T12:06:22.455Z,18.07
2023-02-21T12:09:01.772Z,19.00
2023-02-21T12:11:54.111Z,18.48
2023-02-21T12:14:35.645Z,20.80
2023-02-21T12:17:20.512Z,17.35
2023-02-21T12:19:47.412Z,16.27
2023-02-21T12:22:40.934Z,19.77
2023-02-21T12:25:46.990Z,19.17
2023-02-21T12:28:50.019Z,16.80
2023-02-21T12:31:35.765Z,23.65
2023-02-21T12:34:02.781Z,20.70
2023-02-21T12:36:39.634Z,19.88
2023-02-21T12:39:34.745Z,22.40
2023-02-21T12:42:36.056Z,23.27
2023-02-21T12:45:23.108Z,20.33
2023-02-21T12:47:53.124Z,21.02
2023-02-21T12:50:27.330Z,16.63
2023-02-21T12:53:10.674Z,21.13
2023-02-21T12:55:41.622Z,19.67
2023-02-21T12:58:38.554Z,18.80
2023-02-21T13:01:08.508Z,22.90
2023-02-21T13:03:43.032Z,22.77
2023-02-21T13:06:21.242Z,19.58
2023-02-21T13:09:06.068Z,24.88
2023-02-21T13:11:56.813Z,21.23
2023-02-21T13:14:49.448Z,17.27
2023-02-21T13:17:18.045Z,24.83
2023-02-21T13:20:04.334Z,20.50
2023-02-21T13:22:49.970Z,20.45
2023-02-21T13:25:35.279Z,22.52
2023-02-21T13:28:12.349Z,21.70
2023-02-21T13:31:00.951Z,24.60
2023-02-21T13:33:48.472Z,27.05
2023-02-21T13:36:38.362Z,17.63
2023-02-21T13:39:16.075Z,21.00
2023-02-21T13:41:53.229Z,15.88
2023-02-21T13:44:33.879Z,24.10
2023-02-21T13:47:02.987Z,21.33
2023-02-21T13:49:50.669Z,23.60
2023-02-21T13:52:20.610Z,21.33
2023-02-21T13:55:12.805Z,20.35
2023-02-21T13:57:47.070Z,18.85
2023-02-21T14:00:26.043Z,22.10
2023-02-21T14:03:04.134Z,23.65
2023-02-21T14:05:48.940Z,21.80
2023-02-21T14:08:26.783Z,19.48
2023-02-21T14:11:02.044Z,22.95
2023-02-21T14:13:42.403Z,19.27
2023-02-21T14:16:15.543Z,22.67
2023-02-21T14:18:53.598Z,21.48
2023-02-21T14:21:39.355Z,20.67
2023-02-21T14:24:06.215Z,22.27
2023-02-21T14:26:52.347Z,25.77
2023-02-21T14:31:57.229Z,22.50
2023-02-21T14:34:38.400Z,23.92
2023-02-21T14:37:37.655Z,25.50
2023-02-21T14:40:19.343Z,25.27
2023-02-21T14:43:11.167Z,27.55
2023-02-21T14:45:59.283Z,24.45
2023-02-21T14:48:33.792Z,24.33
2023-02-21T14:51:25.602Z,23.33
2023-02-21T14:54:10.775Z,19.58
2023-02-21T14:57:19.148Z,22.83
2023-02-21T14:59:51.727Z,26.52
2023-02-21T15:02:47.761Z,23.80
2023-02-21T15:05:17.372Z,29.60
2023-02-21T15:08:06.261Z,23.63
2023-02-21T15:10:41.133Z,25.80
2023-02-21T15:13:22.617Z,25.00
2023-02-21T15:16:00.126Z,20.80
2023-02-21T15:18:35.750Z,20.55
2023-02-21T15:21:10.340Z,28.42
2023-02-21T15:23:44.380Z,24.13
2023-02-21T15:26:31.840Z,26.25
2023-02-21T15:29:16.371Z,30.50
2023-02-21T15:31:49.369Z,22.60
2023-02-21T15:34:22.406Z,29.52
2023-02-21T15:36:59.596Z,25.10
2023-02-21T15:39:34.403Z,21.55
2023-02-21T15:42:03.858Z,27.27
2023-02-21T15:44:36.752Z,26.23
2023-02-21T15:47:12.695Z,39.83
2023-02-21T15:49:46.452Z,27.38
2023-02-21T15:52:41.349Z,26.52
2023-02-21T15:55:18.312Z,29.77
2023-02-21T15:57:46.500Z,26.75
2023-02-21T16:00:17.879Z,24.63
2023-02-21T16:02:44.733Z,25.42
2023-02-21T16:05:30.580Z,24.63
2023-02-21T16:08:04.194Z,27.23
2023-02-21T16:10:32.255Z,21.85
2023-02-21T16:13:01.451Z,28.15
2023-02-21T16:15:34.676Z,25.13
2023-02-21T16:18:10.238Z,29.17
2023-02-21T16:20:42.937Z,29.35
2023-02-21T16:23:32.732Z,29.23
2023-02-21T16:26:18.905Z,32.70
2023-02-21T16:28:46.242Z,26.55
2023-02-21T16:31:31.564Z,27.50
2023-02-21T16:33:59.131Z,32.60
2023-02-21T16:36:31.248Z,34.42
2023-02-21T16:38:59.266Z,35.15
2023-02-21T16:41:26.670Z,34.05
2023-02-21T16:43:53.618Z,26.05
2023-02-21T16:46:29.413Z,33.58
2023-02-21T16:48:57.538Z,35.92
2023-02-21T16:51:24.406Z,31.95
2023-02-21T16:53:51.280Z,34.13
2023-02-21T16:56:18.527Z,27.60
2023-02-21T16:58:51.196Z,32.35
2023-02-21T17:01:31.358Z,34.85
2023-02-21T17:03:58.209Z,36.28
2023-02-21T17:06:27.140Z,33.60
2023-02-21T17:08:54.547Z,33.65
2023-02-21T17:11:21.503Z,30.13
2023-02-21T17:13:48.500Z,34.92
2023-02-21T17:16:15.457Z,27.40
2023-02-21T17:18:44.214Z,35.00
2023-02-21T17:21:11.288Z,32.88
2023-02-21T17:23:38.385Z,29.63
2023-02-21T17:26:05.277Z,31.60
2023-02-21T17:28:32.197Z,31.17
2023-02-21T17:30:59.997Z,34.25
2023-02-21T17:33:26.902Z,34.20
2023-02-21T17:36:10.465Z,30.02
2023-02-21T17:38:39.462Z,32.00
2023-02-21T17:41:12.312Z,24.23
2023-02-21T17:43:43.426Z,30.70
2023-02-21T17:46:12.692Z,38.97
2023-02-21T17:48:42.553Z,33.47
2023-02-21T17:57:53.096Z,38.15
2023-02-21T18:00:37.888Z,30.13
2023-02-21T18:06:06.673Z,39.15
2023-02-21T18:08:34.768Z,37.22
2023-02-21T18:11:02.642Z,35.88
2023-02-21T18:13:29.577Z,32.90
2023-02-21T18:15:56.531Z,36.20
2023-02-21T18:18:23.361Z,37.75
2023-02-21T18:20:50.207Z,34.70
2023-02-21T18:23:17.194Z,36.90
2023-02-21T18:25:44.203Z,31.13
2023-02-21T18:28:11.050Z,30.85
2023-02-21T18:30:37.978Z,33.83
2023-02-21T18:33:04.923Z,35.55
2023-02-21T18:35:32.080Z,32.97
2023-02-21T18:37:59.076Z,37.03
2023-02-21T18:40:25.915Z,31.52
2023-02-21T18:42:52.809Z,35.00
2023-02-21T18:45:19.712Z,36.80
2023-02-21T18:47:46.897Z,34.00
2023-02-21T18:50:13.702Z,40.72
2023-02-21T18:52:40.585Z,29.35
2023-02-21T18:55:07.788Z,40.20
2023-02-21T18:57:34.599Z,38.97
2023-02-21T19:00:01.462Z,34.72
2023-02-21T19:02:28.710Z,29.88
2023-02-21T19:04:55.452Z,35.80
2023-02-21T19:07:22.306Z,37.45
2023-02-21T19:09:49.411Z,38.67
2023-02-21T19:12:16.285Z,38.13
2023-02-21T19:14:43.434Z,31.50
2023-02-21T19:17:10.418Z,37.05
2023-02-21T19:19:37.915Z,29.83
2023-02-21T19:22:05.518Z,40.35
2023-02-21T19:24:32.360Z,33.88
2023-02-21T19:26:59.448Z,37.30
2023-02-21T19:29:26.339Z,37.55
2023-02-21T19:31:53.250Z,35.80
2023-02-21T19:34:20.261Z,44.33
2023-02-21T19:36:47.393Z,37.72
2023-02-21T19:39:14.259Z,38.38
2023-02-21T19:41:43.516Z,33.78
2023-02-21T19:44:10.467Z,33.03
2023-02-21T19:46:37.420Z,34.45
2023-02-21T19:49:04.743Z,33.65
2023-02-21T19:51:32.719Z,35.83
2023-02-21T19:54:00.547Z,31.23
2023-02-21T19:56:27.913Z,40.92
2023-02-21T19:58:55.234Z,41.38
2023-02-21T20:01:22.141Z,43.22
2023-02-21T20:03:49.591Z,38.42
2023-02-21T20:06:17.452Z,38.55
2023-02-21T20:08:44.495Z,36.38
2023-02-21T20:11:11.238Z,42.08
2023-02-21T20:13:38.042Z,37.58
2023-02-21T20:16:06.155Z,39.88
2023-02-21T20:18:32.934Z,36.47
2023-02-21T20:20:59.700Z,33.70
2023-02-21T20:23:26.534Z,39.38
2023-02-21T20:25:53.252Z,39.15
2023-02-21T20:28:20.051Z,35.00
2023-02-21T20:30:47.002Z,40.92
2023-02-21T20:33:13.936Z,44.20
2023-02-21T20:35:41.088Z,38.85
2023-02-21T20:38:07.786Z,43.35
2023-02-21T20:40:34.985Z,43.88
2023-02-21T20:43:02.172Z,37.38
2023-02-21T20:45:28.912Z,40.15
2023-02-21T20:47:55.947Z,35.88
2023-02-21T20:50:24.352Z,46.42
2023-02-21T20:52:51.922Z,41.20
2023-02-21T20:55:18.942Z,39.45
2023-02-21T20:57:45.887Z,36.65
2023-02-21T21:00:14.833Z,35.53
2023-02-21T21:02:42.299Z,46.28
2023-02-21T21:05:09.502Z,39.53
2023-02-21T21:07:36.229Z,38.63
2023-02-21T21:10:03.196Z,39.92
2023-02-21T21:12:31.125Z,39.60
2023-02-21T21:14:57.871Z,38.90
2023-02-21T21:17:24.610Z,41.55
2023-02-21T21:19:51.457Z,43.60
2023-02-21T21:22:24.167Z,43.58
2023-02-21T21:24:52.149Z,34.55
2023-02-21T21:27:19.912Z,47.88
2023-02-21T21:29:46.760Z,40.75
2023-02-21T21:32:18.106Z,43.28
2023-02-21T21:34:46.806Z,37.80
2023-02-21T21:37:16.364Z,41.70
2023-02-21T21:39:48.533Z,37.80
2023-02-21T21:42:19.568Z,35.10
2023-02-21T21:44:49.674Z,43.83
2023-02-21T21:47:16.418Z,42.97
2023-02-21T21:49:47.148Z,44.50
2023-02-21T21:52:13.932Z,44.80
2023-02-21T21:54:43.589Z,33.83
2023-02-21T21:57:10.274Z,35.45
2023-02-21T21:59:37.020Z,39.20
2023-02-21T22:02:03.857Z,43.63
2023-02-21T22:04:30.630Z,40.70
2023-02-21T22:06:57.441Z,39.25
2023-02-21T22:09:25.373Z,41.00
2023-02-21T22:11:52.709Z,48.15
2023-02-21T22:14:21.395Z,48.47
2023-02-21T22:16:49.697Z,34.90
2023-02-21T22:19:17.334Z,38.92
2023-02-21T22:21:44.178Z,45.10
2023-02-21T22:24:12.039Z,43.80
2023-02-21T22:26:38.830Z,37.63
2023-02-21T22:29:08.845Z,43.35
2023-02-21T22:31:35.729Z,38.17
2023-02-21T22:34:02.577Z,39.58
2023-02-21T22:36:31.603Z,41.33
2023-02-21T22:38:58.392Z,37.80
2023-02-21T22:41:30.219Z,44.03
2023-02-21T22:43:57.060Z,46.47
2023-02-21T22:46:26.483Z,37.45
2023-02-21T22:48:53.878Z,50.83
2023-02-21T22:51:26.645Z,42.53
2023-02-21T22:53:53.536Z,41.22
2023-02-21T22:56:23.698Z,40.22
2023-02-21T22:58:51.373Z,37.67
2023-02-21T23:01:18.164Z,34.63
2023-02-21T23:03:44.899Z,46.92
2023-02-21T23:06:11.692Z,40.85
2023-02-21T23:08:38.477Z,40.15
2023-02-21T23:11:05.354Z,44.33
2023-02-21T23:13:32.211Z,40.00
2023-02-21T23:15:59.107Z,36.47
2023-02-21T23:18:26.279Z,40.45
2023-02-21T23:20:55.249Z,40.30
2023-02-21T23:23:24.306Z,40.78
2023-02-21T23:25:53.077Z,39.47
2023-02-21T23:28:19.946Z,36.75
2023-02-21T23:30:46.755Z,38.80
2023-02-21T23:33:23.093Z,47.90
2023-02-21T23:35:51.779Z,40.80
2023-02-21T23:38:22.663Z,44.38
2023-02-21T23:40:57.967Z,39.40
2023-02-21T23:43:27.049Z,43.38
2023-02-21T23:45:54.045Z,40.45
2023-02-21T23:48:20.889Z,41.83
2023-02-21T23:50:48.331Z,42.35
2023-02-21T23:53:22.677Z,36.50
2023-02-21T23:55:49.908Z,41.78
2023-02-21T23:58:19.122Z,40.22
